sensor_id;sensor_type;location;lat;lon;timestamp;P1;durP1;ratioP1;P2;durP2;ratioP2
14722;SDS011;7452;55.594;12.986;2023-03-21T00:02:25;9.10;;;4.90;;
14722;SDS011;7452;55.594;12.986;2023-03-21T00:04:52;7.83;;;4.93;;
14722;SDS011;7452;55.594;12.986;2023-03-21T00:07:19;11.77;;;4.83;;
14722;SDS011;7452;55.594;12.986;2023-03-21T00:09:46;10.00;;;4.97;;
14722;SDS011;7452;55.594;12.986;2023-03-21T00:12:13;12.23;;;5.57;;
14722;SDS011;7452;55.594;12.986;2023-03-21T00:14:42;9.73;;;6.00;;
14722;SDS011;7452;55.594;12.986;2023-03-21T00:17:10;11.77;;;6.10;;
14722;SDS011;7452;55.594;12.986;2023-03-21T00:19:37;11.37;;;6.40;;
14722;SDS011;7452;55.594;12.986;2023-03-21T00:22:05;11.73;;;6.87;;
14722;SDS011;7452;55.594;12.986;2023-03-21T00:24:32;9.90;;;6.20;;
14722;SDS011;7452;55.594;12.986;2023-03-21T00:26:59;8.90;;;6.77;;
14722;SDS011;7452;55.594;12.986;2023-03-21T00:29:26;10.53;;;6.43;;
14722;SDS011;7452;55.594;12.986;2023-03-21T00:31:54;9.13;;;6.17;;
14722;SDS011;7452;55.594;12.986;2023-03-21T00:34:21;11.23;;;6.87;;
14722;SDS011;7452;55.594;12.986;2023-03-21T00:36:48;11.23;;;6.60;;
14722;SDS011;7452;55.594;12.986;2023-03-21T00:39:14;11.20;;;6.30;;
14722;SDS011;7452;55.594;12.986;2023-03-21T00:41:41;8.43;;;6.10;;
14722;SDS011;7452;55.594;12.986;2023-03-21T00:44:09;10.93;;;6.47;;
14722;SDS011;7452;55.594;12.986;2023-03-21T00:46:37;10.87;;;5.90;;
14722;SDS011;7452;55.594;12.986;2023-03-21T00:49:05;8.60;;;6.10;;
14722;SDS011;7452;55.594;12.986;2023-03-21T00:51:32;12.80;;;6.80;;
14722;SDS011;7452;55.594;12.986;2023-03-21T00:53:59;8.57;;;6.40;;
14722;SDS011;7452;55.594;12.986;2023-03-21T00:56:26;9.40;;;5.97;;
14722;SDS011;7452;55.594;12.986;2023-03-21T00:58:53;12.57;;;7.33;;
14722;SDS011;7452;55.594;12.986;2023-03-21T01:01:19;14.60;;;6.73;;
14722;SDS011;7452;55.594;12.986;2023-03-21T01:03:46;8.70;;;6.57;;
14722;SDS011;7452;55.594;12.986;2023-03-21T01:06:16;11.40;;;6.50;;
14722;SDS011;7452;55.594;12.986;2023-03-21T01:08:44;8.93;;;6.37;;
14722;SDS011;7452;55.594;12.986;2023-03-21T01:11:13;9.50;;;6.30;;
14722;SDS011;7452;55.594;12.986;2023-03-21T01:13:42;15.20;;;7.10;;
14722;SDS011;7452;55.594;12.986;2023-03-21T01:16:09;11.63;;;6.73;;
14722;SDS011;7452;55.594;12.986;2023-03-21T01:18:37;12.20;;;6.70;;
14722;SDS011;7452;55.594;12.986;2023-03-21T01:21:06;8.93;;;6.20;;
14722;SDS011;7452;55.594;12.986;2023-03-21T01:23:37;10.93;;;6.83;;
14722;SDS011;7452;55.594;12.986;2023-03-21T01:26:05;8.97;;;6.40;;
14722;SDS011;7452;55.594;12.986;2023-03-21T01:28:33;11.17;;;7.17;;
14722;SDS011;7452;55.594;12.986;2023-03-21T01:31:01;9.23;;;7.17;;
14722;SDS011;7452;55.594;12.986;2023-03-21T01:33:29;10.97;;;7.20;;
14722;SDS011;7452;55.594;12.986;2023-03-21T01:35:57;11.10;;;6.83;;
14722;SDS011;7452;55.594;12.986;2023-03-21T01:38:25;11.13;;;8.17;;
14722;SDS011;7452;55.594;12.986;2023-03-21T01:40:53;14.37;;;8.07;;
14722;SDS011;7452;55.594;12.986;2023-03-21T01:43:22;13.47;;;8.80;;
14722;SDS011;7452;55.594;12.986;2023-03-21T01:48:54;14.27;;;9.03;;
14722;SDS011;7452;55.594;12.986;2023-03-21T01:51:24;17.87;;;9.87;;
14722;SDS011;7452;55.594;12.986;2023-03-21T01:53:52;13.80;;;9.37;;
14722;SDS011;7452;55.594;12.986;2023-03-21T01:56:23;14.93;;;8.80;;
14722;SDS011;7452;55.594;12.986;2023-03-21T01:58:54;14.63;;;9.57;;
14722;SDS011;7452;55.594;12.986;2023-03-21T02:01:27;17.90;;;10.27;;
14722;SDS011;7452;55.594;12.986;2023-03-21T02:03:55;18.37;;;10.27;;
14722;SDS011;7452;55.594;12.986;2023-03-21T02:06:32;16.50;;;10.37;;
14722;SDS011;7452;55.594;12.986;2023-03-21T02:09:05;16.13;;;10.70;;
14722;SDS011;7452;55.594;12.986;2023-03-21T02:11:38;17.10;;;10.40;;
14722;SDS011;7452;55.594;12.986;2023-03-21T02:14:05;16.97;;;10.10;;
14722;SDS011;7452;55.594;12.986;2023-03-21T02:16:39;12.73;;;9.20;;
14722;SDS011;7452;55.594;12.986;2023-03-21T02:19:23;13.63;;;9.77;;
14722;SDS011;7452;55.594;12.986;2023-03-21T02:22:19;14.63;;;9.87;;
14722;SDS011;7452;55.594;12.986;2023-03-21T02:28:12;15.60;;;9.73;;
14722;SDS011;7452;55.594;12.986;2023-03-21T02:30:52;15.57;;;9.43;;
14722;SDS011;7452;55.594;12.986;2023-03-21T02:36:53;18.13;;;10.60;;
14722;SDS011;7452;55.594;12.986;2023-03-21T02:39:47;16.30;;;10.37;;
14722;SDS011;7452;55.594;12.986;2023-03-21T02:42:23;17.00;;;10.33;;
14722;SDS011;7452;55.594;12.986;2023-03-21T02:44:57;15.13;;;10.13;;
14722;SDS011;7452;55.594;12.986;2023-03-21T02:47:28;12.53;;;9.23;;
14722;SDS011;7452;55.594;12.986;2023-03-21T02:50:01;15.43;;;10.23;;
14722;SDS011;7452;55.594;12.986;2023-03-21T02:52:36;16.07;;;10.60;;
14722;SDS011;7452;55.594;12.986;2023-03-21T02:55:06;18.17;;;10.70;;
14722;SDS011;7452;55.594;12.986;2023-03-21T02:57:38;16.47;;;10.40;;
14722;SDS011;7452;55.594;12.986;2023-03-21T03:00:08;28.83;;;10.80;;
14722;SDS011;7452;55.594;12.986;2023-03-21T03:02:38;25.23;;;10.67;;
14722;SDS011;7452;55.594;12.986;2023-03-21T03:05:13;19.00;;;10.03;;
14722;SDS011;7452;55.594;12.986;2023-03-21T03:07:45;38.47;;;11.10;;
14722;SDS011;7452;55.594;12.986;2023-03-21T03:10:25;35.03;;;10.73;;
14722;SDS011;7452;55.594;12.986;2023-03-21T03:13:06;26.87;;;10.47;;
14722;SDS011;7452;55.594;12.986;2023-03-21T03:15:46;25.60;;;9.60;;
14722;SDS011;7452;55.594;12.986;2023-03-21T03:18:23;22.17;;;9.07;;
14722;SDS011;7452;55.594;12.986;2023-03-21T03:20:57;22.83;;;10.10;;
14722;SDS011;7452;55.594;12.986;2023-03-21T03:23:34;21.50;;;9.53;;
14722;SDS011;7452;55.594;12.986;2023-03-21T03:26:08;41.20;;;11.10;;
14722;SDS011;7452;55.594;12.986;2023-03-21T03:28:38;17.97;;;10.57;;
14722;SDS011;7452;55.594;12.986;2023-03-21T03:31:07;21.17;;;10.83;;
14722;SDS011;7452;55.594;12.986;2023-03-21T03:33:39;24.53;;;10.97;;
14722;SDS011;7452;55.594;12.986;2023-03-21T03:36:09;29.00;;;11.53;;
14722;SDS011;7452;55.594;12.986;2023-03-21T03:38:39;45.73;;;11.87;;
14722;SDS011;7452;55.594;12.986;2023-03-21T03:41:08;38.03;;;11.73;;
14722;SDS011;7452;55.594;12.986;2023-03-21T03:43:40;71.93;;;14.17;;
14722;SDS011;7452;55.594;12.986;2023-03-21T03:46:12;77.43;;;14.03;;
14722;SDS011;7452;55.594;12.986;2023-03-21T03:48:43;37.10;;;11.53;;
14722;SDS011;7452;55.594;12.986;2023-03-21T03:51:15;69.80;;;13.07;;
14722;SDS011;7452;55.594;12.986;2023-03-21T03:53:51;34.70;;;10.93;;
14722;SDS011;7452;55.594;12.986;2023-03-21T03:56:20;32.50;;;13.03;;
14722;SDS011;7452;55.594;12.986;2023-03-21T03:58:49;21.13;;;11.67;;
14722;SDS011;7452;55.594;12.986;2023-03-21T04:01:16;18.33;;;11.97;;
14722;SDS011;7452;55.594;12.986;2023-03-21T04:03:44;19.80;;;12.13;;
14722;SDS011;7452;55.594;12.986;2023-03-21T04:06:13;20.20;;;11.60;;
14722;SDS011;7452;55.594;12.986;2023-03-21T04:08:40;18.47;;;11.67;;
14722;SDS011;7452;55.594;12.986;2023-03-21T04:11:09;20.83;;;12.00;;
14722;SDS011;7452;55.594;12.986;2023-03-21T04:13:36;17.97;;;11.47;;
14722;SDS011;7452;55.594;12.986;2023-03-21T04:16:03;20.13;;;11.80;;
14722;SDS011;7452;55.594;12.986;2023-03-21T04:18:31;22.27;;;12.47;;
14722;SDS011;7452;55.594;12.986;2023-03-21T04:20:57;18.63;;;11.57;;
14722;SDS011;7452;55.594;12.986;2023-03-21T04:23:25;19.07;;;11.63;;
14722;SDS011;7452;55.594;12.986;2023-03-21T04:25:53;19.43;;;12.20;;
14722;SDS011;7452;55.594;12.986;2023-03-21T04:28:22;18.43;;;11.83;;
14722;SDS011;7452;55.594;12.986;2023-03-21T04:30:49;18.30;;;10.80;;
14722;SDS011;7452;55.594;12.986;2023-03-21T04:33:16;19.53;;;12.40;;
14722;SDS011;7452;55.594;12.986;2023-03-21T04:35:44;17.10;;;10.83;;
14722;SDS011;7452;55.594;12.986;2023-03-21T04:38:10;15.10;;;10.00;;
14722;SDS011;7452;55.594;12.986;2023-03-21T04:40:38;16.50;;;10.60;;
14722;SDS011;7452;55.594;12.986;2023-03-21T04:43:05;14.67;;;10.00;;
14722;SDS011;7452;55.594;12.986;2023-03-21T04:45:33;17.03;;;10.60;;
14722;SDS011;7452;55.594;12.986;2023-03-21T04:48:00;14.73;;;9.50;;
14722;SDS011;7452;55.594;12.986;2023-03-21T04:50:28;14.57;;;10.47;;
14722;SDS011;7452;55.594;12.986;2023-03-21T04:52:55;14.30;;;9.40;;
14722;SDS011;7452;55.594;12.986;2023-03-21T04:55:22;18.90;;;9.83;;
14722;SDS011;7452;55.594;12.986;2023-03-21T04:57:52;17.73;;;10.73;;
14722;SDS011;7452;55.594;12.986;2023-03-21T05:00:19;17.03;;;10.20;;
14722;SDS011;7452;55.594;12.986;2023-03-21T05:02:48;21.83;;;10.43;;
14722;SDS011;7452;55.594;12.986;2023-03-21T05:05:15;45.97;;;10.27;;
14722;SDS011;7452;55.594;12.986;2023-03-21T05:07:42;16.87;;;10.23;;
14722;SDS011;7452;55.594;12.986;2023-03-21T05:10:10;57.80;;;11.10;;
14722;SDS011;7452;55.594;12.986;2023-03-21T05:12:37;70.67;;;13.10;;
14722;SDS011;7452;55.594;12.986;2023-03-21T05:15:06;50.63;;;11.53;;
14722;SDS011;7452;55.594;12.986;2023-03-21T05:17:33;49.07;;;10.87;;
14722;SDS011;7452;55.594;12.986;2023-03-21T05:20:02;49.70;;;10.57;;
14722;SDS011;7452;55.594;12.986;2023-03-21T05:22:30;57.80;;;11.23;;
14722;SDS011;7452;55.594;12.986;2023-03-21T05:25:05;61.50;;;10.67;;
14722;SDS011;7452;55.594;12.986;2023-03-21T05:27:34;23.33;;;8.93;;
14722;SDS011;7452;55.594;12.986;2023-03-21T05:30:02;29.33;;;10.43;;
14722;SDS011;7452;55.594;12.986;2023-03-21T05:32:35;30.20;;;9.83;;
14722;SDS011;7452;55.594;12.986;2023-03-21T05:35:04;20.97;;;8.80;;
14722;SDS011;7452;55.594;12.986;2023-03-21T05:37:32;14.93;;;9.00;;
14722;SDS011;7452;55.594;12.986;2023-03-21T05:39:58;15.30;;;9.60;;
14722;SDS011;7452;55.594;12.986;2023-03-21T05:42:25;15.23;;;8.93;;
14722;SDS011;7452;55.594;12.986;2023-03-21T05:44:52;12.13;;;7.80;;
14722;SDS011;7452;55.594;12.986;2023-03-21T05:47:19;10.23;;;7.43;;
14722;SDS011;7452;55.594;12.986;2023-03-21T05:49:46;11.77;;;7.83;;
14722;SDS011;7452;55.594;12.986;2023-03-21T05:52:15;10.23;;;7.27;;
14722;SDS011;7452;55.594;12.986;2023-03-21T05:54:42;9.80;;;7.13;;
14722;SDS011;7452;55.594;12.986;2023-03-21T05:57:09;9.43;;;7.23;;
14722;SDS011;7452;55.594;12.986;2023-03-21T05:59:36;10.37;;;7.43;;
14722;SDS011;7452;55.594;12.986;2023-03-21T06:02:03;8.87;;;7.13;;
14722;SDS011;7452;55.594;12.986;2023-03-21T06:04:30;9.93;;;6.90;;
14722;SDS011;7452;55.594;12.986;2023-03-21T06:06:56;8.83;;;6.60;;
14722;SDS011;7452;55.594;12.986;2023-03-21T06:09:25;9.13;;;6.87;;
14722;SDS011;7452;55.594;12.986;2023-03-21T06:11:52;9.53;;;7.20;;
14722;SDS011;7452;55.594;12.986;2023-03-21T06:14:22;9.23;;;7.23;;
14722;SDS011;7452;55.594;12.986;2023-03-21T06:16:49;10.23;;;6.93;;
14722;SDS011;7452;55.594;12.986;2023-03-21T06:19:18;9.77;;;7.03;;
14722;SDS011;7452;55.594;12.986;2023-03-21T06:21:45;9.30;;;6.83;;
14722;SDS011;7452;55.594;12.986;2023-03-21T06:24:13;9.30;;;7.23;;
14722;SDS011;7452;55.594;12.986;2023-03-21T06:26:41;12.20;;;8.20;;
14722;SDS011;7452;55.594;12.986;2023-03-21T06:29:08;11.67;;;8.30;;
14722;SDS011;7452;55.594;12.986;2023-03-21T06:31:35;10.47;;;8.13;;
14722;SDS011;7452;55.594;12.986;2023-03-21T06:34:02;12.80;;;8.30;;
14722;SDS011;7452;55.594;12.986;2023-03-21T06:36:29;13.40;;;7.57;;
14722;SDS011;7452;55.594;12.986;2023-03-21T06:38:56;13.90;;;8.63;;
14722;SDS011;7452;55.594;12.986;2023-03-21T06:41:23;11.93;;;7.70;;
14722;SDS011;7452;55.594;12.986;2023-03-21T06:43:51;11.27;;;8.43;;
14722;SDS011;7452;55.594;12.986;2023-03-21T06:46:18;12.23;;;8.43;;
14722;SDS011;7452;55.594;12.986;2023-03-21T06:48:45;12.27;;;8.53;;
14722;SDS011;7452;55.594;12.986;2023-03-21T06:51:12;13.63;;;8.50;;
14722;SDS011;7452;55.594;12.986;2023-03-21T06:53:40;11.10;;;8.07;;
14722;SDS011;7452;55.594;12.986;2023-03-21T06:56:07;11.80;;;8.53;;
14722;SDS011;7452;55.594;12.986;2023-03-21T06:58:35;12.23;;;8.90;;
14722;SDS011;7452;55.594;12.986;2023-03-21T07:01:04;11.80;;;9.00;;
14722;SDS011;7452;55.594;12.986;2023-03-21T07:03:32;12.00;;;8.60;;
14722;SDS011;7452;55.594;12.986;2023-03-21T07:06:02;12.50;;;8.97;;
14722;SDS011;7452;55.594;12.986;2023-03-21T07:08:31;13.83;;;9.27;;
14722;SDS011;7452;55.594;12.986;2023-03-21T07:10:58;11.57;;;8.83;;
14722;SDS011;7452;55.594;12.986;2023-03-21T07:13:25;11.93;;;8.63;;
14722;SDS011;7452;55.594;12.986;2023-03-21T07:15:52;14.03;;;9.13;;
14722;SDS011;7452;55.594;12.986;2023-03-21T07:18:20;16.63;;;9.93;;
14722;SDS011;7452;55.594;12.986;2023-03-21T07:20:47;13.13;;;9.47;;
14722;SDS011;7452;55.594;12.986;2023-03-21T07:23:16;13.23;;;9.40;;
14722;SDS011;7452;55.594;12.986;2023-03-21T07:25:43;12.70;;;9.10;;
14722;SDS011;7452;55.594;12.986;2023-03-21T07:28:10;15.47;;;9.97;;
14722;SDS011;7452;55.594;12.986;2023-03-21T07:30:37;12.80;;;9.10;;
14722;SDS011;7452;55.594;12.986;2023-03-21T07:33:04;11.50;;;8.33;;
14722;SDS011;7452;55.594;12.986;2023-03-21T07:35:32;13.77;;;8.63;;
14722;SDS011;7452;55.594;12.986;2023-03-21T07:38:01;11.70;;;8.70;;
14722;SDS011;7452;55.594;12.986;2023-03-21T07:40:28;12.53;;;8.20;;
14722;SDS011;7452;55.594;12.986;2023-03-21T07:42:54;14.43;;;8.57;;
14722;SDS011;7452;55.594;12.986;2023-03-21T07:45:21;12.13;;;8.30;;
14722;SDS011;7452;55.594;12.986;2023-03-21T07:47:51;12.47;;;8.07;;
14722;SDS011;7452;55.594;12.986;2023-03-21T07:50:18;12.80;;;8.67;;
14722;SDS011;7452;55.594;12.986;2023-03-21T07:52:46;13.37;;;9.33;;
14722;SDS011;7452;55.594;12.986;2023-03-21T07:55:14;13.57;;;8.70;;
14722;SDS011;7452;55.594;12.986;2023-03-21T07:57:41;11.30;;;8.43;;
14722;SDS011;7452;55.594;12.986;2023-03-21T08:00:09;14.23;;;9.03;;
14722;SDS011;7452;55.594;12.986;2023-03-21T08:02:37;12.87;;;7.97;;
14722;SDS011;7452;55.594;12.986;2023-03-21T08:05:04;11.90;;;8.30;;
14722;SDS011;7452;55.594;12.986;2023-03-21T08:07:32;11.77;;;7.70;;
14722;SDS011;7452;55.594;12.986;2023-03-21T08:10:00;11.37;;;6.67;;
14722;SDS011;7452;55.594;12.986;2023-03-21T08:12:27;10.83;;;7.30;;
14722;SDS011;7452;55.594;12.986;2023-03-21T08:14:54;11.67;;;8.27;;
14722;SDS011;7452;55.594;12.986;2023-03-21T08:17:21;10.03;;;7.30;;
14722;SDS011;7452;55.594;12.986;2023-03-21T08:19:47;10.20;;;6.97;;
14722;SDS011;7452;55.594;12.986;2023-03-21T08:22:14;8.17;;;5.90;;
14722;SDS011;7452;55.594;12.986;2023-03-21T08:24:41;8.63;;;5.70;;
14722;SDS011;7452;55.594;12.986;2023-03-21T08:27:10;7.33;;;5.07;;
14722;SDS011;7452;55.594;12.986;2023-03-21T08:29:37;8.73;;;6.03;;
14722;SDS011;7452;55.594;12.986;2023-03-21T08:32:06;8.40;;;5.50;;
14722;SDS011;7452;55.594;12.986;2023-03-21T08:34:33;7.67;;;6.10;;
14722;SDS011;7452;55.594;12.986;2023-03-21T08:37:00;8.13;;;6.87;;
14722;SDS011;7452;55.594;12.986;2023-03-21T08:39:27;13.27;;;6.83;;
14722;SDS011;7452;55.594;12.986;2023-03-21T08:41:54;7.40;;;6.57;;
14722;SDS011;7452;55.594;12.986;2023-03-21T08:44:22;7.53;;;6.43;;
14722;SDS011;7452;55.594;12.986;2023-03-21T08:46:51;9.50;;;7.17;;
14722;SDS011;7452;55.594;12.986;2023-03-21T08:49:17;8.00;;;7.10;;
14722;SDS011;7452;55.594;12.986;2023-03-21T08:51:44;9.87;;;6.40;;
14722;SDS011;7452;55.594;12.986;2023-03-21T08:54:16;8.23;;;6.00;;
14722;SDS011;7452;55.594;12.986;2023-03-21T08:56:45;9.83;;;6.07;;
14722;SDS011;7452;55.594;12.986;2023-03-21T08:59:12;6.67;;;5.90;;
14722;SDS011;7452;55.594;12.986;2023-03-21T09:01:40;8.90;;;6.13;;
14722;SDS011;7452;55.594;12.986;2023-03-21T09:04:07;11.33;;;7.10;;
14722;SDS011;7452;55.594;12.986;2023-03-21T09:06:35;8.60;;;6.67;;
14722;SDS011;7452;55.594;12.986;2023-03-21T09:09:02;10.17;;;7.57;;
14722;SDS011;7452;55.594;12.986;2023-03-21T09:11:31;11.30;;;7.83;;
14722;SDS011;7452;55.594;12.986;2023-03-21T09:13:58;11.87;;;8.80;;
14722;SDS011;7452;55.594;12.986;2023-03-21T09:16:25;11.70;;;8.27;;
14722;SDS011;7452;55.594;12.986;2023-03-21T09:18:54;11.90;;;8.50;;
14722;SDS011;7452;55.594;12.986;2023-03-21T09:21:23;12.73;;;8.90;;
14722;SDS011;7452;55.594;12.986;2023-03-21T09:23:52;12.50;;;9.50;;
14722;SDS011;7452;55.594;12.986;2023-03-21T09:26:22;13.90;;;9.63;;
14722;SDS011;7452;55.594;12.986;2023-03-21T09:28:51;13.70;;;9.97;;
14722;SDS011;7452;55.594;12.986;2023-03-21T09:31:18;13.90;;;10.40;;
14722;SDS011;7452;55.594;12.986;2023-03-21T09:33:47;12.53;;;9.33;;
14722;SDS011;7452;55.594;12.986;2023-03-21T09:36:15;12.03;;;8.83;;
14722;SDS011;7452;55.594;12.986;2023-03-21T09:38:45;12.60;;;9.33;;
14722;SDS011;7452;55.594;12.986;2023-03-21T09:44:09;13.57;;;9.33;;
14722;SDS011;7452;55.594;12.986;2023-03-21T09:46:49;14.13;;;9.60;;
14722;SDS011;7452;55.594;12.986;2023-03-21T09:49:20;14.27;;;9.37;;
14722;SDS011;7452;55.594;12.986;2023-03-21T09:51:57;14.70;;;10.00;;
14722;SDS011;7452;55.594;12.986;2023-03-21T09:54:28;12.77;;;8.87;;
14722;SDS011;7452;55.594;12.986;2023-03-21T09:57:00;13.70;;;9.63;;
14722;SDS011;7452;55.594;12.986;2023-03-21T09:59:31;14.37;;;10.40;;
14722;SDS011;7452;55.594;12.986;2023-03-21T10:02:02;14.03;;;9.73;;
14722;SDS011;7452;55.594;12.986;2023-03-21T10:04:39;14.73;;;9.70;;
14722;SDS011;7452;55.594;12.986;2023-03-21T10:07:09;14.30;;;10.60;;
14722;SDS011;7452;55.594;12.986;2023-03-21T10:09:42;14.40;;;9.83;;
14722;SDS011;7452;55.594;12.986;2023-03-21T10:12:11;17.90;;;11.00;;
14722;SDS011;7452;55.594;12.986;2023-03-21T10:14:42;16.37;;;11.10;;
14722;SDS011;7452;55.594;12.986;2023-03-21T10:17:15;17.20;;;11.83;;
14722;SDS011;7452;55.594;12.986;2023-03-21T10:22:23;16.87;;;11.63;;
14722;SDS011;7452;55.594;12.986;2023-03-21T10:24:50;18.50;;;11.67;;
14722;SDS011;7452;55.594;12.986;2023-03-21T10:27:17;17.13;;;12.13;;
14722;SDS011;7452;55.594;12.986;2023-03-21T10:29:44;20.30;;;13.10;;
14722;SDS011;7452;55.594;12.986;2023-03-21T10:32:12;21.03;;;13.30;;
14722;SDS011;7452;55.594;12.986;2023-03-21T10:34:43;19.90;;;12.87;;
14722;SDS011;7452;55.594;12.986;2023-03-21T10:37:12;21.67;;;13.07;;
14722;SDS011;7452;55.594;12.986;2023-03-21T10:39:42;19.17;;;12.73;;
14722;SDS011;7452;55.594;12.986;2023-03-21T10:42:16;22.73;;;12.87;;
14722;SDS011;7452;55.594;12.986;2023-03-21T10:44:45;20.83;;;12.57;;
14722;SDS011;7452;55.594;12.986;2023-03-21T10:47:18;22.60;;;13.73;;
14722;SDS011;7452;55.594;12.986;2023-03-21T10:49:46;22.53;;;13.90;;
14722;SDS011;7452;55.594;12.986;2023-03-21T10:52:16;25.90;;;14.00;;
14722;SDS011;7452;55.594;12.986;2023-03-21T10:54:45;28.63;;;14.63;;
14722;SDS011;7452;55.594;12.986;2023-03-21T10:57:14;26.43;;;14.17;;
14722;SDS011;7452;55.594;12.986;2023-03-21T10:59:45;29.10;;;15.23;;
14722;SDS011;7452;55.594;12.986;2023-03-21T11:02:19;31.87;;;14.60;;
14722;SDS011;7452;55.594;12.986;2023-03-21T11:04:50;24.60;;;13.10;;
14722;SDS011;7452;55.594;12.986;2023-03-21T11:07:18;32.37;;;14.73;;
14722;SDS011;7452;55.594;12.986;2023-03-21T11:09:47;27.67;;;14.10;;
14722;SDS011;7452;55.594;12.986;2023-03-21T11:12:16;29.40;;;14.17;;
14722;SDS011;7452;55.594;12.986;2023-03-21T11:14:53;33.57;;;13.90;;
14722;SDS011;7452;55.594;12.986;2023-03-21T11:17:21;32.70;;;13.37;;
14722;SDS011;7452;55.594;12.986;2023-03-21T11:19:55;33.13;;;14.67;;
14722;SDS011;7452;55.594;12.986;2023-03-21T11:22:24;30.57;;;13.70;;
14722;SDS011;7452;55.594;12.986;2023-03-21T11:24:57;31.93;;;14.20;;
14722;SDS011;7452;55.594;12.986;2023-03-21T11:27:26;28.27;;;13.30;;
14722;SDS011;7452;55.594;12.986;2023-03-21T11:29:54;31.43;;;13.60;;
14722;SDS011;7452;55.594;12.986;2023-03-21T11:32:24;29.70;;;13.40;;
14722;SDS011;7452;55.594;12.986;2023-03-21T11:34:56;27.17;;;13.37;;
14722;SDS011;7452;55.594;12.986;2023-03-21T11:37:25;27.13;;;13.33;;
14722;SDS011;7452;55.594;12.986;2023-03-21T11:40:04;28.77;;;13.60;;
14722;SDS011;7452;55.594;12.986;2023-03-21T11:42:39;26.93;;;13.93;;
14722;SDS011;7452;55.594;12.986;2023-03-21T11:45:11;27.97;;;13.13;;
14722;SDS011;7452;55.594;12.986;2023-03-21T11:47:39;34.43;;;14.80;;
14722;SDS011;7452;55.594;12.986;2023-03-21T11:50:14;28.70;;;14.67;;
14722;SDS011;7452;55.594;12.986;2023-03-21T11:52:44;29.07;;;14.07;;
14722;SDS011;7452;55.594;12.986;2023-03-21T11:55:30;26.53;;;13.83;;
14722;SDS011;7452;55.594;12.986;2023-03-21T11:58:09;32.40;;;14.97;;
14722;SDS011;7452;55.594;12.986;2023-03-21T12:00:47;33.00;;;13.23;;
14722;SDS011;7452;55.594;12.986;2023-03-21T12:03:29;24.67;;;13.13;;
14722;SDS011;7452;55.594;12.986;2023-03-21T12:06:13;27.53;;;13.47;;
14722;SDS011;7452;55.594;12.986;2023-03-21T12:08:47;25.87;;;12.90;;
14722;SDS011;7452;55.594;12.986;2023-03-21T12:11:22;25.40;;;12.93;;
14722;SDS011;7452;55.594;12.986;2023-03-21T12:13:56;22.83;;;12.57;;
14722;SDS011;7452;55.594;12.986;2023-03-21T12:16:34;23.33;;;11.70;;
14722;SDS011;7452;55.594;12.986;2023-03-21T12:19:11;19.37;;;12.00;;
14722;SDS011;7452;55.594;12.986;2023-03-21T12:22:04;22.80;;;12.93;;
14722;SDS011;7452;55.594;12.986;2023-03-21T12:24:40;24.20;;;13.13;;
14722;SDS011;7452;55.594;12.986;2023-03-21T12:27:18;23.33;;;14.07;;
14722;SDS011;7452;55.594;12.986;2023-03-21T12:30:01;23.27;;;13.70;;
14722;SDS011;7452;55.594;12.986;2023-03-21T12:35:31;22.53;;;13.90;;
14722;SDS011;7452;55.594;12.986;2023-03-21T12:38:13;23.20;;;14.90;;
14722;SDS011;7452;55.594;12.986;2023-03-21T12:40:50;22.57;;;14.63;;
14722;SDS011;7452;55.594;12.986;2023-03-21T12:43:38;26.10;;;14.60;;
14722;SDS011;7452;55.594;12.986;2023-03-21T12:46:10;24.57;;;14.73;;
14722;SDS011;7452;55.594;12.986;2023-03-21T12:48:42;23.93;;;14.13;;
14722;SDS011;7452;55.594;12.986;2023-03-21T12:51:13;23.80;;;14.80;;
14722;SDS011;7452;55.594;12.986;2023-03-21T12:56:33;27.17;;;16.23;;
14722;SDS011;7452;55.594;12.986;2023-03-21T12:59:11;26.70;;;16.53;;
14722;SDS011;7452;55.594;12.986;2023-03-21T13:01:46;30.80;;;17.77;;
14722;SDS011;7452;55.594;12.986;2023-03-21T13:04:22;33.27;;;19.50;;
14722;SDS011;7452;55.594;12.986;2023-03-21T13:07:02;33.20;;;19.93;;
14722;SDS011;7452;55.594;12.986;2023-03-21T13:09:34;34.27;;;21.23;;
14722;SDS011;7452;55.594;12.986;2023-03-21T13:12:04;34.97;;;21.50;;
14722;SDS011;7452;55.594;12.986;2023-03-21T13:14:44;36.13;;;21.83;;
14722;SDS011;7452;55.594;12.986;2023-03-21T13:17:18;34.33;;;22.03;;
14722;SDS011;7452;55.594;12.986;2023-03-21T13:19:53;36.70;;;23.07;;
14722;SDS011;7452;55.594;12.986;2023-03-21T13:22:29;38.57;;;23.40;;
14722;SDS011;7452;55.594;12.986;2023-03-21T13:24:57;40.97;;;24.50;;
14722;SDS011;7452;55.594;12.986;2023-03-21T13:27:26;40.43;;;24.50;;
14722;SDS011;7452;55.594;12.986;2023-03-21T13:30:00;46.47;;;26.37;;
14722;SDS011;7452;55.594;12.986;2023-03-21T13:32:31;48.30;;;27.60;;
14722;SDS011;7452;55.594;12.986;2023-03-21T13:35:00;47.93;;;27.80;;
14722;SDS011;7452;55.594;12.986;2023-03-21T13:37:30;47.50;;;28.70;;
14722;SDS011;7452;55.594;12.986;2023-03-21T13:39:59;44.60;;;26.57;;
14722;SDS011;7452;55.594;12.986;2023-03-21T13:42:33;43.40;;;27.23;;
14722;SDS011;7452;55.594;12.986;2023-03-21T13:45:04;44.77;;;28.43;;
14722;SDS011;7452;55.594;12.986;2023-03-21T13:47:39;46.43;;;28.47;;
14722;SDS011;7452;55.594;12.986;2023-03-21T13:58:52;39.27;;;25.50;;
14722;SDS011;7452;55.594;12.986;2023-03-21T14:01:29;38.73;;;24.23;;
14722;SDS011;7452;55.594;12.986;2023-03-21T14:04:14;44.60;;;25.97;;
14722;SDS011;7452;55.594;12.986;2023-03-21T14:06:47;40.23;;;25.00;;
14722;SDS011;7452;55.594;12.986;2023-03-21T14:09:24;33.47;;;23.23;;
14722;SDS011;7452;55.594;12.986;2023-03-21T14:11:55;37.83;;;24.43;;
14722;SDS011;7452;55.594;12.986;2023-03-21T14:14:23;33.70;;;23.73;;
14722;SDS011;7452;55.594;12.986;2023-03-21T14:16:54;36.40;;;24.47;;
14722;SDS011;7452;55.594;12.986;2023-03-21T14:19:27;34.63;;;22.10;;
14722;SDS011;7452;55.594;12.986;2023-03-21T14:21:55;31.37;;;22.77;;
14722;SDS011;7452;55.594;12.986;2023-03-21T14:24:21;35.03;;;23.63;;
14722;SDS011;7452;55.594;12.986;2023-03-21T14:26:49;31.73;;;22.73;;
14722;SDS011;7452;55.594;12.986;2023-03-21T14:29:19;31.47;;;22.77;;
14722;SDS011;7452;55.594;12.986;2023-03-21T14:31:50;37.40;;;22.63;;
14722;SDS011;7452;55.594;12.986;2023-03-21T14:34:19;31.47;;;23.20;;
14722;SDS011;7452;55.594;12.986;2023-03-21T14:36:48;31.73;;;22.33;;
14722;SDS011;7452;55.594;12.986;2023-03-21T14:39:16;32.93;;;23.20;;
14722;SDS011;7452;55.594;12.986;2023-03-21T14:41:46;35.43;;;23.80;;
14722;SDS011;7452;55.594;12.986;2023-03-21T14:44:15;32.73;;;23.17;;
14722;SDS011;7452;55.594;12.986;2023-03-21T14:46:50;34.77;;;22.30;;
14722;SDS011;7452;55.594;12.986;2023-03-21T14:49:25;31.77;;;22.83;;
14722;SDS011;7452;55.594;12.986;2023-03-21T14:51:53;31.57;;;22.13;;
14722;SDS011;7452;55.594;12.986;2023-03-21T14:54:21;31.27;;;22.13;;
14722;SDS011;7452;55.594;12.986;2023-03-21T14:56:51;31.20;;;22.83;;
14722;SDS011;7452;55.594;12.986;2023-03-21T14:59:24;31.90;;;22.77;;
14722;SDS011;7452;55.594;12.986;2023-03-21T15:01:56;30.57;;;21.00;;
14722;SDS011;7452;55.594;12.986;2023-03-21T15:04:28;29.67;;;20.80;;
14722;SDS011;7452;55.594;12.986;2023-03-21T15:06:57;32.23;;;22.10;;
14722;SDS011;7452;55.594;12.986;2023-03-21T15:09:29;31.10;;;21.53;;
14722;SDS011;7452;55.594;12.986;2023-03-21T15:11:57;31.33;;;21.53;;
14722;SDS011;7452;55.594;12.986;2023-03-21T15:14:26;29.63;;;21.20;;
14722;SDS011;7452;55.594;12.986;2023-03-21T15:16:56;30.20;;;21.70;;